LYBE/BEG METAR and TAF weather

Enter ICAO airport designator
Station Type Date Time Source
LYBE METAR 2021/09/25 21:00 UTC NOAA

LYBE 252100Z 14006KT CAVOK 18/11 Q1021 NOSIG


Station Type Date Time Source
LYBE Decoded METAR 2021/09/25 21:00 UTC NOAA

Beograd / Surcin, Serbia and Montenegro (LYBE) 44-49N 020-17E 99M
Sep 25, 2021 - 05:00 PM EDT / 2021.09.25 2100 UTC
Wind: from the SE (140 degrees) at 7 MPH (6 KT):0
Visibility: greater than 7 mile(s):0
Temperature: 64 F (18 C)
Dew Point: 51 F (11 C)
Relative Humidity: 63%
Pressure (altimeter): 30.15 in. Hg (1021 hPa)
ob: LYBE 252100Z 14006KT CAVOK 18/11 Q1021 NOSIG
cycle: 21

Station Type Date Time Source
LYBE TAF 2021/09/25 18:21 UTC NOAA

TAF LYBE 251700Z 2518/2618 12005KT CAVOK TX28/2613Z TN14/2604Z

Example: see airport list